Time;durP1;ratioP1;P1;durP2;ratioP2;P2;SDS_P1;SDS_P2;PMS_P1;PMS_P2;Temp;Humidity;BMP_temperature;BMP_pressure;BME280_temperature;BME280_humidity;BME280_pressure;Samples;Min_cycle;Max_cycle;Signal;HPM_P1;HPM_P2
2022/02/12 00:02:16;;;;;;;15.17;10.77;;;0.50;99.90;;;;;;6194224;23;20408;-83
2022/02/12 00:04:42;;;;;;;14.90;10.40;;;0.50;99.90;;;;;;6195499;23;20434;-84
2022/02/12 00:07:08;;;;;;;14.17;11.23;;;0.40;99.90;;;;;;6194803;23;20159;-83
2022/02/12 00:09:34;;;;;;;18.40;10.77;;;0.30;99.90;;;;;;6193273;23;20170;-83
2022/02/12 00:12:00;;;;;;;14.27;10.10;;;0.30;99.90;;;;;;6188762;23;20936;-83
2022/02/12 00:14:25;;;;;;;15.10;10.53;;;0.30;99.90;;;;;;6189126;23;20401;-83
2022/02/12 00:16:51;;;;;;;13.67;9.43;;;0.30;99.90;;;;;;6189616;23;20525;-83
2022/02/12 00:19:17;;;;;;;15.20;10.60;;;0.40;99.90;;;;;;6185780;23;20484;-83
2022/02/12 00:21:42;;;;;;;14.90;10.30;;;0.30;99.90;;;;;;6189995;23;20159;-83
2022/02/12 00:24:08;;;;;;;11.37;9.30;;;0.30;99.90;;;;;;6192217;23;20158;-83
2022/02/12 00:26:34;;;;;;;13.13;9.40;;;0.30;99.90;;;;;;6188915;23;20241;-83
2022/02/12 00:29:01;;;;;;;16.10;8.90;;;0.40;99.90;;;;;;6190549;23;20368;-83
2022/02/12 00:31:27;;;;;;;13.80;9.23;;;0.20;99.90;;;;;;6191279;23;20631;-83
2022/02/12 00:33:53;;;;;;;11.50;10.20;;;0.10;99.90;;;;;;6189714;23;20738;-83
2022/02/12 00:36:18;;;;;;;13.00;9.77;;;0.00;99.90;;;;;;6189790;23;20170;-83
2022/02/12 00:38:44;;;;;;;13.27;8.50;;;-0.10;99.90;;;;;;6191435;23;20672;-83
2022/02/12 00:41:11;;;;;;;10.33;8.70;;;0.00;99.90;;;;;;6196413;23;20182;-83
2022/02/12 00:43:37;;;;;;;10.67;9.40;;;0.10;99.90;;;;;;6192425;23;20447;-83
2022/02/12 00:46:03;;;;;;;11.40;8.37;;;0.20;99.90;;;;;;6187524;23;20533;-83
2022/02/12 00:48:37;;;;;;;12.13;9.67;;;0.30;99.90;;;;;;6214450;23;20378;-83
2022/02/12 00:51:03;;;;;;;13.20;9.60;;;0.20;99.90;;;;;;6187510;23;20454;-83
2022/02/12 00:53:29;;;;;;;11.57;9.40;;;0.20;99.90;;;;;;6187915;23;20159;-83
2022/02/12 00:56:00;;;;;;;12.20;10.00;;;0.20;99.90;;;;;;6177935;23;20159;-83
2022/02/12 00:58:26;;;;;;;10.63;9.40;;;0.30;99.90;;;;;;6181512;23;20678;-83
2022/02/12 01:00:52;;;;;;;13.07;9.20;;;0.30;99.90;;;;;;6184490;23;20659;-83
2022/02/12 01:03:17;;;;;;;11.70;10.20;;;0.30;99.90;;;;;;6187792;23;20637;-83
2022/02/12 01:05:43;;;;;;;14.87;10.17;;;0.20;99.90;;;;;;6220036;23;20633;-82
2022/02/12 01:08:12;;;;;;;14.97;9.90;;;0.20;99.90;;;;;;6190969;23;20166;-83
2022/02/12 01:10:39;;;;;;;13.10;11.50;;;0.20;99.90;;;;;;6187748;23;20588;-82
2022/02/12 01:13:05;;;;;;;13.93;10.70;;;0.10;99.90;;;;;;6191278;23;20494;-83
2022/02/12 01:15:32;;;;;;;12.53;10.50;;;-0.10;99.90;;;;;;6189274;23;20163;-82
2022/02/12 01:17:58;;;;;;;13.57;10.23;;;-0.10;99.90;;;;;;6190594;23;20159;-83
2022/02/12 01:20:23;;;;;;;14.03;9.97;;;-0.10;99.90;;;;;;6186486;23;20404;-83
2022/02/12 01:22:49;;;;;;;14.53;10.03;;;-0.10;99.90;;;;;;6193696;23;20159;-83
2022/02/12 01:25:16;;;;;;;13.73;11.20;;;-0.10;99.90;;;;;;6191776;23;20186;-82
2022/02/12 01:27:42;;;;;;;12.50;10.57;;;-0.10;99.90;;;;;;6185495;23;20154;-83
2022/02/12 01:30:08;;;;;;;16.40;10.37;;;-0.10;99.90;;;;;;6187064;23;20864;-82
2022/02/12 01:32:34;;;;;;;11.80;10.23;;;-0.10;99.90;;;;;;6185491;23;21227;-82
2022/02/12 01:35:00;;;;;;;14.17;10.43;;;-0.10;99.90;;;;;;6187286;23;20390;-82
2022/02/12 01:37:25;;;;;;;12.73;9.37;;;-0.20;99.90;;;;;;6185258;23;20852;-83
2022/02/12 01:39:54;;;;;;;11.80;9.87;;;-0.20;99.90;;;;;;6192096;23;20360;-83
2022/02/12 01:42:23;;;;;;;12.00;9.40;;;-0.20;99.90;;;;;;6186848;23;20456;-83
2022/02/12 01:44:49;;;;;;;10.70;8.63;;;-0.20;99.90;;;;;;6185243;23;20442;-83
2022/02/12 01:47:15;;;;;;;11.93;7.47;;;-0.30;99.90;;;;;;6187144;23;20938;-83
2022/02/12 01:49:41;;;;;;;12.20;8.87;;;-0.30;99.90;;;;;;6185725;23;20163;-82
2022/02/12 01:52:10;;;;;;;12.70;8.63;;;-0.30;99.90;;;;;;6187614;23;20776;-83
2022/02/12 01:54:37;;;;;;;11.80;9.37;;;-0.30;99.90;;;;;;6192216;23;20389;-83
2022/02/12 01:57:04;;;;;;;11.67;9.33;;;-0.30;99.90;;;;;;6186758;23;20421;-83
2022/02/12 01:59:31;;;;;;;13.90;10.30;;;-0.30;99.90;;;;;;6188788;23;20385;-82
2022/02/12 02:01:57;;;;;;;16.73;10.80;;;-0.40;99.90;;;;;;6187264;23;20408;-83
2022/02/12 02:04:23;;;;;;;11.00;9.37;;;-0.50;99.90;;;;;;6189144;23;20855;-83
2022/02/12 02:06:49;;;;;;;13.20;10.03;;;-0.40;99.90;;;;;;6188170;23;20894;-83
2022/02/12 02:09:20;;;;;;;15.07;11.20;;;-0.40;99.90;;;;;;6190586;23;20755;-83
2022/02/12 02:11:46;;;;;;;12.20;9.80;;;-0.50;99.90;;;;;;6192616;23;20425;-83
2022/02/12 02:14:12;;;;;;;12.37;10.40;;;-0.50;99.90;;;;;;6189369;23;20374;-83
2022/02/12 02:16:42;;;;;;;12.90;9.83;;;-0.40;99.90;;;;;;6188812;23;20402;-83
2022/02/12 02:19:09;;;;;;;13.27;10.77;;;-0.50;99.90;;;;;;6187572;23;20671;-84
2022/02/12 02:21:39;;;;;;;13.90;10.20;;;-0.50;99.90;;;;;;6190658;23;21094;-84
2022/02/12 02:24:11;;;;;;;11.00;9.13;;;-0.50;99.90;;;;;;6191504;23;21176;-84
2022/02/12 02:26:48;;;;;;;15.00;10.10;;;-0.70;99.90;;;;;;6191132;23;20400;-84
2022/02/12 02:29:19;;;;;;;11.60;9.67;;;-0.80;99.90;;;;;;6188584;23;20941;-84
2022/02/12 02:31:48;;;;;;;13.60;9.40;;;-0.70;99.90;;;;;;6189657;23;20477;-84
2022/02/12 02:34:13;;;;;;;17.97;11.47;;;-0.60;99.90;;;;;;6187639;23;20394;-83
2022/02/12 02:36:41;;;;;;;14.60;10.17;;;-0.50;99.90;;;;;;6194242;23;20170;-84
2022/02/12 02:39:07;;;;;;;14.53;10.47;;;-0.50;99.90;;;;;;6189740;23;20162;-84
2022/02/12 02:41:33;;;;;;;10.07;9.00;;;-0.60;99.90;;;;;;6194287;23;20374;-84
2022/02/12 02:44:02;;;;;;;15.20;8.90;;;-0.50;99.90;;;;;;6192837;23;20397;-83
2022/02/12 02:46:28;;;;;;;15.27;9.60;;;-0.50;99.90;;;;;;6191161;23;20457;-84
2022/02/12 02:48:53;;;;;;;10.37;9.10;;;-0.40;99.90;;;;;;6190371;23;20895;-84
2022/02/12 02:56:47;;;;;;;14.80;11.57;;;-0.70;99.90;;;;;;6219354;23;20947;-84
2022/02/12 02:59:13;;;;;;;21.00;12.63;;;-0.60;99.90;;;;;;6189022;23;20500;-84
2022/02/12 03:01:39;;;;;;;17.80;12.87;;;-1.00;99.90;;;;;;6183411;23;20159;-83
2022/02/12 03:04:05;;;;;;;17.17;12.43;;;-1.10;99.90;;;;;;6189640;23;20440;-83
2022/02/12 03:06:31;;;;;;;21.57;11.90;;;-1.00;99.90;;;;;;6191953;23;20218;-84
2022/02/12 03:09:08;;;;;;;14.20;11.30;;;-0.90;99.90;;;;;;6191161;23;20823;-83
2022/02/12 03:11:34;;;;;;;11.90;10.20;;;-0.80;99.90;;;;;;6191983;23;20420;-84
2022/02/12 03:14:08;;;;;;;15.47;10.67;;;-0.80;99.90;;;;;;6221416;23;20379;-84
2022/02/12 03:16:36;;;;;;;14.27;10.60;;;-0.80;99.90;;;;;;6193640;23;20648;-84
2022/02/12 03:19:02;;;;;;;14.63;9.80;;;-0.80;99.90;;;;;;6192939;23;20402;-84
2022/02/12 03:21:28;;;;;;;14.83;11.10;;;-1.00;99.90;;;;;;6192906;23;20422;-84
2022/02/12 03:23:54;;;;;;;15.30;9.50;;;-1.00;99.90;;;;;;6193464;23;20444;-83
2022/02/12 03:26:20;;;;;;;11.50;9.50;;;-1.00;99.90;;;;;;6191865;23;20187;-83
2022/02/12 03:28:46;;;;;;;14.67;11.17;;;-1.00;99.90;;;;;;6192767;23;20394;-83
2022/02/12 03:31:13;;;;;;;12.40;10.27;;;-1.00;99.90;;;;;;6192089;23;20455;-83
2022/02/12 03:33:38;;;;;;;12.10;9.47;;;-1.00;99.90;;;;;;6189831;23;20389;-83
2022/02/12 03:36:05;;;;;;;17.30;10.27;;;-0.90;99.90;;;;;;6215573;23;20848;-83
2022/02/12 03:38:33;;;;;;;14.27;10.27;;;-0.90;99.90;;;;;;6193106;23;20675;-83
2022/02/12 03:41:01;;;;;;;14.40;10.30;;;-1.00;99.90;;;;;;6191446;23;20919;-83
2022/02/12 03:43:28;;;;;;;14.87;10.63;;;-1.00;99.90;;;;;;6193940;23;20402;-83
2022/02/12 03:45:54;;;;;;;15.40;9.50;;;-1.10;99.90;;;;;;6193254;23;20437;-83
2022/02/12 03:48:24;;;;;;;19.30;9.77;;;-1.10;99.90;;;;;;6192293;23;20389;-83
2022/02/12 03:50:52;;;;;;;13.30;9.47;;;-1.10;99.90;;;;;;6188433;23;20425;-82
2022/02/12 03:53:18;;;;;;;14.43;10.50;;;-1.00;99.90;;;;;;6183799;23;20390;-82
2022/02/12 03:55:44;;;;;;;14.13;10.00;;;-1.00;99.90;;;;;;6183200;23;20624;-83
2022/02/12 03:58:15;;;;;;;15.13;10.67;;;-0.90;99.90;;;;;;6186278;23;20378;-83
2022/02/12 04:00:42;;;;;;;12.93;8.93;;;-0.90;99.90;;;;;;6195567;23;20151;-83
2022/02/12 04:03:08;;;;;;;12.80;9.60;;;-0.90;99.90;;;;;;6189543;23;20382;-83
2022/02/12 04:05:35;;;;;;;13.30;9.00;;;-0.90;99.90;;;;;;6192053;23;20444;-83
2022/02/12 04:08:02;;;;;;;11.33;9.70;;;-1.00;99.90;;;;;;6192052;23;20705;-83
2022/02/12 04:10:29;;;;;;;13.40;8.70;;;-0.90;99.90;;;;;;6189145;23;20390;-83
2022/02/12 04:12:55;;;;;;;14.40;10.00;;;-0.90;99.90;;;;;;6188024;23;20800;-83
2022/02/12 04:15:25;;;;;;;13.50;9.13;;;-1.00;99.90;;;;;;6197403;23;20390;-83
2022/02/12 04:17:51;;;;;;;17.40;10.47;;;-1.00;99.90;;;;;;6196056;23;20752;-83
2022/02/12 04:20:22;;;;;;;10.70;7.83;;;-1.00;99.90;;;;;;6196446;23;20802;-82
2022/02/12 04:22:48;;;;;;;14.10;10.07;;;-0.90;99.90;;;;;;6197577;23;20413;-82
2022/02/12 04:25:16;;;;;;;12.90;9.20;;;-0.90;99.90;;;;;;6194638;23;20438;-82
2022/02/12 04:27:43;;;;;;;12.67;9.10;;;-1.00;99.90;;;;;;6194399;23;20378;-82
2022/02/12 04:30:10;;;;;;;11.20;8.60;;;-1.10;99.90;;;;;;6188261;23;20429;-82
2022/02/12 04:32:36;;;;;;;12.20;9.10;;;-1.10;99.90;;;;;;6187163;23;20393;-82
2022/02/12 04:35:03;;;;;;;15.60;8.70;;;-1.10;99.90;;;;;;6190221;23;20938;-82
2022/02/12 04:37:30;;;;;;;11.00;8.40;;;-1.10;99.90;;;;;;6191768;23;20572;-82
2022/02/12 04:39:55;;;;;;;14.83;8.63;;;-1.00;99.90;;;;;;6192218;23;20473;-82
2022/02/12 04:42:21;;;;;;;14.13;9.73;;;-1.10;99.90;;;;;;6190807;23;20472;-82
2022/02/12 04:44:49;;;;;;;14.73;9.50;;;-1.10;99.90;;;;;;6196785;23;20198;-82
2022/02/12 04:47:19;;;;;;;13.67;10.30;;;-1.20;99.90;;;;;;6189486;23;20389;-83
2022/02/12 04:49:46;;;;;;;11.90;10.00;;;-1.10;99.90;;;;;;6190520;23;20401;-82
2022/02/12 04:52:13;;;;;;;15.40;9.70;;;-1.00;99.90;;;;;;6186835;23;20481;-82
2022/02/12 04:54:42;;;;;;;13.83;10.13;;;-1.00;99.90;;;;;;6190327;23;21038;-82
2022/02/12 04:57:08;;;;;;;11.60;9.50;;;-1.00;99.90;;;;;;6189874;23;20386;-83
2022/02/12 04:59:37;;;;;;;13.33;9.30;;;-1.00;99.90;;;;;;6189182;23;20912;-83
2022/02/12 05:02:04;;;;;;;12.13;8.80;;;-1.00;99.90;;;;;;6193232;23;20888;-83
2022/02/12 05:04:30;;;;;;;12.43;9.47;;;-1.10;99.90;;;;;;6187859;23;20612;-82
2022/02/12 05:06:56;;;;;;;15.97;10.07;;;-1.20;99.90;;;;;;6192127;23;20508;-82
2022/02/12 05:09:21;;;;;;;14.20;10.30;;;-1.40;99.90;;;;;;6189421;23;20417;-83
2022/02/12 05:11:50;;;;;;;17.10;11.57;;;-1.50;99.90;;;;;;6190692;23;20611;-83
2022/02/12 05:14:19;;;;;;;16.50;10.30;;;-1.60;99.90;;;;;;6193085;23;20157;-83
2022/02/12 05:16:45;;;;;;;15.17;10.03;;;-1.60;99.90;;;;;;6190410;23;20899;-83
2022/02/12 05:19:14;;;;;;;19.00;11.23;;;-1.60;99.90;;;;;;6190110;23;20389;-84
2022/02/12 05:21:40;;;;;;;18.10;11.00;;;-1.70;99.90;;;;;;6191993;23;20383;-83
2022/02/12 05:24:07;;;;;;;17.27;10.80;;;-1.70;99.90;;;;;;6190863;23;21008;-84
2022/02/12 05:26:32;;;;;;;17.93;10.37;;;-1.70;99.90;;;;;;6190868;23;20772;-83
2022/02/12 05:28:58;;;;;;;16.63;9.10;;;-1.70;99.90;;;;;;6189373;23;20386;-83
2022/02/12 05:31:26;;;;;;;12.70;9.67;;;-1.60;99.90;;;;;;6190450;23;20192;-83
2022/02/12 05:33:52;;;;;;;14.33;9.70;;;-1.80;99.90;;;;;;6189376;23;21244;-83
2022/02/12 05:36:18;;;;;;;14.60;9.83;;;-1.90;99.90;;;;;;6188243;23;20444;-83
2022/02/12 05:38:45;;;;;;;13.83;8.70;;;-1.90;99.90;;;;;;6194523;23;20492;-83
2022/02/12 05:41:15;;;;;;;12.80;8.13;;;-1.80;99.90;;;;;;6188451;23;20390;-83
2022/02/12 05:43:41;;;;;;;17.13;8.97;;;-1.80;99.90;;;;;;6192848;23;20490;-83
2022/02/12 05:46:11;;;;;;;15.90;8.90;;;-1.70;99.90;;;;;;6190032;23;20816;-83
2022/02/12 05:48:37;;;;;;;20.23;9.57;;;-1.70;99.90;;;;;;6190618;23;20601;-83
2022/02/12 05:51:03;;;;;;;13.47;8.57;;;-1.60;99.90;;;;;;6188192;23;20686;-83
2022/02/12 05:53:29;;;;;;;14.40;8.00;;;-1.50;99.90;;;;;;6193081;23;20459;-84
2022/02/12 05:55:55;;;;;;;12.10;7.67;;;-1.40;99.90;;;;;;6190898;23;20398;-83
2022/02/12 05:58:22;;;;;;;12.50;8.30;;;-1.40;99.90;;;;;;6188373;23;20391;-83
2022/02/12 06:00:51;;;;;;;11.30;7.33;;;-1.30;99.90;;;;;;6187577;23;20402;-83
2022/02/12 06:03:17;;;;;;;12.50;7.40;;;-1.40;99.90;;;;;;6191575;23;20385;-82
2022/02/12 06:05:45;;;;;;;13.07;7.57;;;-1.30;99.90;;;;;;6186841;23;20443;-82
2022/02/12 06:08:11;;;;;;;13.17;7.97;;;-1.30;99.90;;;;;;6192621;23;20397;-82
2022/02/12 06:10:37;;;;;;;11.90;8.47;;;-1.30;99.90;;;;;;6189448;23;20163;-82
2022/02/12 06:13:03;;;;;;;13.00;8.00;;;-1.30;99.90;;;;;;6189296;23;20791;-83
2022/02/12 06:15:30;;;;;;;15.10;7.30;;;-1.20;99.90;;;;;;6193017;23;20386;-83
2022/02/12 06:17:56;;;;;;;13.83;7.83;;;-1.20;99.90;;;;;;6191684;23;20163;-82
2022/02/12 06:20:24;;;;;;;11.67;7.33;;;-1.30;99.90;;;;;;6191595;23;20699;-83
2022/02/12 06:22:50;;;;;;;12.77;8.00;;;-1.50;99.90;;;;;;6190669;23;20405;-83
2022/02/12 06:25:16;;;;;;;15.50;8.27;;;-1.50;99.90;;;;;;6189350;23;20438;-83
2022/02/12 06:27:42;;;;;;;13.43;7.20;;;-1.50;99.90;;;;;;6192665;23;20549;-83
2022/02/12 06:30:16;;;;;;;14.33;8.07;;;-1.50;99.90;;;;;;6191413;23;20586;-83
2022/02/12 06:32:42;;;;;;;15.50;7.90;;;-1.50;99.90;;;;;;6197027;23;20378;-83
2022/02/12 06:35:08;;;;;;;11.17;7.20;;;-1.50;99.90;;;;;;6194610;23;20171;-83
2022/02/12 06:37:34;;;;;;;14.40;8.03;;;-1.50;99.90;;;;;;6204792;23;20918;-84
2022/02/12 06:40:00;;;;;;;12.57;7.87;;;-1.60;99.90;;;;;;6196471;23;20921;-84
2022/02/12 06:42:29;;;;;;;21.70;8.40;;;-1.60;99.90;;;;;;6224633;23;20826;-84
2022/02/12 06:44:55;;;;;;;11.70;8.10;;;-1.60;99.90;;;;;;6193164;23;20440;-84
2022/02/12 06:47:33;;;;;;;14.00;8.13;;;-1.60;99.90;;;;;;6193190;23;20867;-83
2022/02/12 06:49:59;;;;;;;14.60;8.07;;;-1.50;99.90;;;;;;6190362;23;20169;-82
2022/02/12 06:52:34;;;;;;;8.43;6.93;;;-1.50;99.90;;;;;;6190784;23;20392;-82
2022/02/12 06:55:03;;;;;;;10.73;7.80;;;-1.40;99.90;;;;;;6186392;23;20165;-87
2022/02/12 06:57:38;;;;;;;10.57;7.50;;;-1.40;99.90;;;;;;6187949;23;20408;-84
2022/02/12 07:00:07;;;;;;;13.80;7.63;;;-1.40;99.90;;;;;;6182052;23;20393;-86
2022/02/12 07:02:35;;;;;;;11.23;7.73;;;-1.30;99.90;;;;;;6184658;23;20402;-85
2022/02/12 07:05:01;;;;;;;11.03;6.90;;;-1.30;99.90;;;;;;6187411;23;20470;-84
2022/02/12 07:07:29;;;;;;;12.53;6.70;;;-1.30;99.90;;;;;;6183637;23;20940;-83
2022/02/12 07:09:55;;;;;;;12.00;8.43;;;-1.30;99.90;;;;;;6183999;23;20404;-83
2022/02/12 07:12:36;;;;;;;12.20;7.03;;;-1.20;99.90;;;;;;6186716;23;20771;-85
2022/02/12 07:15:02;;;;;;;14.57;6.90;;;-1.20;99.90;;;;;;6190354;23;20510;-84
2022/02/12 07:17:28;;;;;;;10.27;7.10;;;-1.20;99.90;;;;;;6190918;23;21215;-83
2022/02/12 07:19:53;;;;;;;15.53;7.37;;;-1.30;99.90;;;;;;6190483;23;20398;-84
2022/02/12 07:22:25;;;;;;;17.10;6.87;;;-1.30;99.90;;;;;;6189155;23;20240;-84
2022/02/12 07:24:52;;;;;;;11.73;6.77;;;-1.20;99.90;;;;;;6191052;23;20581;-83
2022/02/12 07:27:18;;;;;;;12.47;7.00;;;-1.10;99.90;;;;;;6192500;23;20922;-84
2022/02/12 07:29:44;;;;;;;11.97;6.80;;;-1.10;99.90;;;;;;6201584;23;20382;-85
2022/02/12 07:32:13;;;;;;;11.23;6.90;;;-0.90;99.90;;;;;;6201268;23;20390;-85
2022/02/12 07:34:39;;;;;;;10.37;7.17;;;-0.90;99.90;;;;;;6191133;23;20386;-83
2022/02/12 07:37:04;;;;;;;18.23;7.50;;;-0.80;99.90;;;;;;6161497;23;20401;-84
2022/02/12 07:39:50;;;;;;;8.33;6.73;;;-0.70;99.90;;;;;;6161197;23;20159;-86
2022/02/12 07:42:18;;;;;;;15.50;8.17;;;-0.70;99.90;;;;;;6159868;23;20156;-84
2022/02/12 07:44:46;;;;;;;13.90;6.67;;;-0.70;99.90;;;;;;6160232;23;20434;-84
2022/02/12 07:47:12;;;;;;;12.93;7.60;;;-0.60;99.90;;;;;;6158692;23;20449;-82
2022/02/12 07:49:38;;;;;;;10.50;7.77;;;-0.40;99.90;;;;;;6159816;23;20391;-83
2022/02/12 07:52:04;;;;;;;13.87;7.03;;;-0.50;99.90;;;;;;6158535;23;20158;-84
2022/02/12 07:54:29;;;;;;;11.20;8.43;;;-0.40;99.90;;;;;;6161537;23;20155;-84
2022/02/12 07:56:59;;;;;;;12.47;7.30;;;-0.30;99.90;;;;;;6160942;23;20466;-84
2022/02/12 07:59:25;;;;;;;10.10;6.47;;;-0.20;99.90;;;;;;6162987;23;20395;-84
2022/02/12 08:01:53;;;;;;;10.87;6.67;;;-0.10;99.90;;;;;;6160938;23;20389;-84
2022/02/12 08:04:19;;;;;;;10.67;6.20;;;0.00;99.90;;;;;;6157465;23;20811;-86
2022/02/12 08:09:33;;;;;;;12.93;7.20;;;0.20;99.90;;;;;;6184596;23;20151;-84
2022/02/12 08:12:11;;;;;;;10.27;6.30;;;0.30;99.90;;;;;;6157895;23;20727;-84
2022/02/12 08:14:39;;;;;;;13.30;6.83;;;0.40;99.90;;;;;;6154701;23;20903;-85
2022/02/12 08:17:04;;;;;;;11.07;7.73;;;0.50;99.90;;;;;;6151193;23;20387;-83
2022/02/12 08:19:32;;;;;;;14.07;7.50;;;0.60;99.90;;;;;;6151661;23;21000;-85
2022/02/12 08:21:58;;;;;;;15.30;7.50;;;0.80;99.90;;;;;;6155906;23;20156;-84
2022/02/12 08:24:24;;;;;;;10.50;6.63;;;1.00;99.90;;;;;;6157026;23;20840;-85
2022/02/12 08:27:00;;;;;;;11.87;6.80;;;1.30;99.90;;;;;;6156481;23;20191;-87
2022/02/12 08:32:23;;;;;;;13.00;7.17;;;1.70;99.90;;;;;;6185273;23;20693;-87
2022/02/12 08:34:51;;;;;;;10.70;6.57;;;1.90;99.90;;;;;;6168185;23;20380;-86
2022/02/12 08:37:36;;;;;;;8.53;6.10;;;2.20;99.90;;;;;;6198461;23;20455;-87
2022/02/12 08:40:40;;;;;;;10.13;6.40;;;2.20;99.90;;;;;;6209561;23;20443;-88
2022/02/12 08:43:07;;;;;;;9.33;5.73;;;2.40;99.90;;;;;;6214200;23;20488;-89
2022/02/12 08:45:33;;;;;;;10.73;6.33;;;2.60;99.90;;;;;;6192582;23;20472;-88
2022/02/12 08:47:59;;;;;;;11.17;6.73;;;2.70;99.90;;;;;;6188867;23;20420;-88
2022/02/12 08:50:25;;;;;;;10.80;6.73;;;2.90;99.90;;;;;;6187694;23;20819;-86
2022/02/12 08:52:51;;;;;;;7.57;5.50;;;3.10;99.90;;;;;;6188248;23;20658;-86
2022/02/12 08:55:20;;;;;;;9.13;6.30;;;3.40;99.90;;;;;;6189094;23;20422;-86
2022/02/12 08:57:50;;;;;;;9.20;6.10;;;3.70;99.90;;;;;;6191535;23;20242;-87
2022/02/12 09:00:18;;;;;;;9.43;6.27;;;3.90;99.90;;;;;;6186769;23;21147;-86
2022/02/12 09:02:44;;;;;;;10.50;6.30;;;4.00;99.90;;;;;;6211262;23;20581;-87
2022/02/12 09:05:10;;;;;;;16.83;7.13;;;4.00;99.90;;;;;;6183073;23;20439;-86
2022/02/12 09:07:41;;;;;;;13.63;6.40;;;4.10;99.90;;;;;;6188232;23;20159;-86
2022/02/12 09:10:16;;;;;;;9.47;6.30;;;4.30;99.90;;;;;;6186155;23;20186;-85
2022/02/12 09:12:42;;;;;;;10.47;6.90;;;4.30;99.90;;;;;;6183932;23;20474;-85
2022/02/12 09:15:10;;;;;;;12.27;6.97;;;4.20;99.90;;;;;;6183212;23;20870;-85
2022/02/12 09:17:36;;;;;;;8.80;6.00;;;4.30;99.90;;;;;;6185347;23;20172;-84
2022/02/12 09:20:02;;;;;;;12.07;6.53;;;4.60;99.90;;;;;;6191059;23;20393;-84
2022/02/12 09:22:30;;;;;;;8.43;5.87;;;4.70;99.90;;;;;;6197383;23;20160;-83
2022/02/12 09:24:56;;;;;;;9.70;6.73;;;4.80;99.90;;;;;;6190284;23;20460;-83
2022/02/12 09:27:22;;;;;;;10.73;6.70;;;5.00;99.90;;;;;;6183690;23;20697;-82
2022/02/12 09:29:54;;;;;;;6.77;5.37;;;5.00;99.90;;;;;;6185109;23;20204;-82
2022/02/12 09:32:20;;;;;;;11.20;6.40;;;5.20;99.90;;;;;;6185857;23;20163;-83
2022/02/12 09:34:45;;;;;;;14.00;6.70;;;5.20;99.90;;;;;;6183656;23;20380;-83
2022/02/12 09:37:11;;;;;;;11.17;6.73;;;5.20;99.90;;;;;;6189242;23;20181;-83
2022/02/12 09:39:39;;;;;;;9.57;6.37;;;5.10;99.90;;;;;;6188575;23;20236;-83
2022/02/12 09:42:05;;;;;;;8.33;6.40;;;5.40;99.90;;;;;;6186467;23;20988;-83
2022/02/12 09:44:31;;;;;;;8.90;6.53;;;5.70;99.90;;;;;;6188629;23;20402;-83
2022/02/12 09:47:15;;;;;;;8.30;5.33;;;5.80;99.90;;;;;;6186025;23;20170;-83
2022/02/12 09:49:44;;;;;;;7.13;5.50;;;6.00;99.90;;;;;;6217012;23;20518;-83
2022/02/12 09:52:11;;;;;;;11.50;7.30;;;6.10;99.90;;;;;;6185775;23;20857;-83
2022/02/12 09:54:37;;;;;;;12.37;7.23;;;6.20;99.90;;;;;;6189153;23;20854;-82
2022/02/12 09:57:06;;;;;;;12.30;7.20;;;6.50;99.90;;;;;;6186051;23;20386;-83
2022/02/12 09:59:32;;;;;;;10.93;6.33;;;6.50;99.90;;;;;;6188638;23;20770;-82
2022/02/12 10:02:00;;;;;;;10.30;6.80;;;6.60;99.90;;;;;;6182822;23;20478;-83
2022/02/12 10:04:26;;;;;;;10.70;6.83;;;7.00;99.90;;;;;;6189530;23;20254;-83
2022/02/12 10:06:51;;;;;;;9.80;6.43;;;7.10;99.90;;;;;;6185451;23;20506;-83
2022/02/12 10:09:22;;;;;;;9.07;6.03;;;7.00;99.90;;;;;;6188840;23;20428;-83
2022/02/12 10:11:54;;;;;;;7.57;6.40;;;7.00;99.90;;;;;;6189608;23;20168;-83
2022/02/12 10:14:23;;;;;;;10.03;6.80;;;7.10;99.90;;;;;;6186523;23;20749;-83
2022/02/12 10:16:55;;;;;;;10.90;6.40;;;7.10;99.90;;;;;;6186498;23;20393;-83
2022/02/12 10:19:44;;;;;;;9.80;7.00;;;7.20;99.90;;;;;;6187852;23;20379;-83
2022/02/12 10:22:15;;;;;;;13.60;6.97;;;7.50;99.90;;;;;;6187047;23;21282;-83
2022/02/12 10:24:48;;;;;;;11.07;7.20;;;7.60;99.90;;;;;;6188249;23;20622;-83
2022/02/12 10:27:14;;;;;;;7.53;5.90;;;7.60;99.90;;;;;;6186729;23;20483;-83
2022/02/12 10:29:45;;;;;;;10.20;6.77;;;7.70;99.90;;;;;;6188447;23;20598;-83
2022/02/12 10:32:11;;;;;;;12.40;6.60;;;7.60;99.90;;;;;;6184760;23;20372;-83
2022/02/12 10:34:43;;;;;;;8.70;7.00;;;7.40;99.90;;;;;;6184042;23;20787;-83
2022/02/12 10:37:15;;;;;;;10.73;6.90;;;7.30;99.90;;;;;;6152458;23;20694;-84
2022/02/12 10:40:01;;;;;;;8.33;7.00;;;7.60;99.90;;;;;;6157035;23;20405;-83
2022/02/12 10:42:30;;;;;;;10.10;6.40;;;7.80;99.90;;;;;;6158185;23;20410;-84
2022/02/12 10:44:56;;;;;;;7.10;6.40;;;7.80;99.90;;;;;;6155397;23;20892;-84
2022/02/12 10:47:23;;;;;;;11.17;7.30;;;7.70;99.90;;;;;;6155339;23;20999;-84
2022/02/12 10:49:49;;;;;;;12.97;6.53;;;7.70;99.90;;;;;;6158895;23;20378;-84
2022/02/12 10:52:16;;;;;;;13.70;7.20;;;8.00;99.90;;;;;;6156199;23;20390;-84
2022/02/12 10:54:45;;;;;;;11.43;7.10;;;7.80;99.80;;;;;;6152156;23;20395;-84
2022/02/12 10:57:12;;;;;;;10.87;7.53;;;7.80;99.80;;;;;;6153117;23;20748;-84
2022/02/12 10:59:42;;;;;;;7.43;6.30;;;7.90;99.90;;;;;;6151970;23;20387;-84
2022/02/12 11:02:10;;;;;;;11.73;7.33;;;7.90;98.90;;;;;;6152298;23;20688;-84
2022/02/12 11:04:38;;;;;;;11.70;6.40;;;8.10;99.10;;;;;;6153586;23;20385;-84
2022/02/12 11:07:05;;;;;;;11.70;6.67;;;8.20;98.80;;;;;;6156220;23;21070;-84
2022/02/12 11:09:32;;;;;;;8.10;5.47;;;8.30;99.30;;;;;;6149295;23;20405;-84
2022/02/12 11:12:05;;;;;;;11.27;6.50;;;8.60;97.60;;;;;;6160449;23;20461;-84
2022/02/12 11:14:36;;;;;;;8.70;6.00;;;8.90;97.80;;;;;;6150255;23;20940;-84
2022/02/12 11:17:22;;;;;;;10.43;6.07;;;9.20;96.60;;;;;;6153421;23;20403;-84
2022/02/12 11:19:52;;;;;;;8.27;5.10;;;9.00;95.50;;;;;;6153277;23;20378;-84
2022/02/12 11:22:18;;;;;;;8.13;5.80;;;9.00;96.10;;;;;;6158833;23;20395;-84
2022/02/12 11:24:45;;;;;;;8.50;5.20;;;9.70;94.80;;;;;;6182461;23;20378;-84
2022/02/12 11:27:14;;;;;;;4.60;4.10;;;10.30;93.60;;;;;;6157347;23;21218;-84
2022/02/12 11:29:44;;;;;;;6.80;4.20;;;10.30;89.70;;;;;;6156354;23;20448;-84
2022/02/12 11:32:10;;;;;;;5.60;3.60;;;9.70;91.20;;;;;;6159536;23;20860;-84
2022/02/12 11:34:36;;;;;;;4.50;3.20;;;9.50;91.60;;;;;;6157607;23;20468;-83
2022/02/12 11:37:25;;;;;;;3.37;2.67;;;9.20;89.90;;;;;;6187869;23;20413;-83
2022/02/12 11:40:13;;;;;;;4.23;2.40;;;9.10;89.90;;;;;;6212808;23;20162;-84
2022/02/12 11:42:46;;;;;;;4.57;2.30;;;9.50;86.60;;;;;;6189825;23;20420;-82
2022/02/12 11:45:47;;;;;;;2.87;2.20;;;9.20;81.40;;;;;;6186007;23;20434;-83
2022/02/12 11:48:29;;;;;;;6.17;2.40;;;9.20;83.40;;;;;;6166332;23;21042;-83
2022/02/12 11:51:08;;;;;;;3.30;2.00;;;9.50;82.80;;;;;;6196685;23;20447;-83
2022/02/12 11:53:45;;;;;;;2.00;1.80;;;9.40;79.90;;;;;;6191121;23;20388;-83
2022/02/12 11:56:11;;;;;;;2.07;1.80;;;9.40;80.30;;;;;;6186909;23;20369;-83
2022/02/12 11:58:43;;;;;;;2.43;1.80;;;9.20;78.50;;;;;;6190462;23;20390;-82
2022/02/12 12:01:24;;;;;;;1.70;1.60;;;9.40;73.60;;;;;;6186057;23;20151;-82
2022/02/12 12:04:15;;;;;;;2.67;1.90;;;9.20;76.30;;;;;;6186009;23;20412;-82
2022/02/12 12:06:59;;;;;;;2.83;1.83;;;9.20;74.50;;;;;;6208246;23;20430;-82
2022/02/12 12:09:26;;;;;;;1.60;1.40;;;9.80;72.40;;;;;;6185608;23;21031;-83
2022/02/12 12:12:21;;;;;;;2.10;1.90;;;10.10;71.50;;;;;;6188024;23;20497;-83
2022/02/12 12:14:54;;;;;;;3.30;2.27;;;10.50;70.40;;;;;;6185042;23;20847;-83
2022/02/12 12:17:27;;;;;;;2.37;1.73;;;10.30;66.40;;;;;;6185777;23;20919;-82
2022/02/12 12:19:53;;;;;;;3.40;1.90;;;10.00;71.80;;;;;;6186030;23;20585;-83
2022/02/12 12:22:21;;;;;;;1.90;1.63;;;10.40;70.90;;;;;;6187283;23;20638;-84
2022/02/12 12:24:47;;;;;;;2.60;1.60;;;10.50;64.60;;;;;;6183610;23;20758;-84
2022/02/12 12:27:17;;;;;;;2.10;1.60;;;10.50;68.70;;;;;;6189588;23;20398;-84
2022/02/12 12:32:30;;;;;;;4.20;1.90;;;10.40;69.20;;;;;;6212842;23;20956;-84
2022/02/12 12:35:05;;;;;;;2.00;1.50;;;10.40;62.90;;;;;;6187085;23;20772;-84
2022/02/12 12:37:33;;;;;;;2.40;1.50;;;10.20;65.60;;;;;;6185339;23;20393;-84
2022/02/12 12:40:02;;;;;;;6.03;2.30;;;10.50;66.00;;;;;;6186390;23;20390;-84
2022/02/12 12:42:29;;;;;;;2.90;1.63;;;10.70;59.70;;;;;;6189027;23;20456;-84
2022/02/12 12:45:03;;;;;;;3.30;1.80;;;10.70;63.50;;;;;;6187353;23;20422;-83
2022/02/12 12:47:30;;;;;;;1.87;1.70;;;10.80;62.40;;;;;;6188191;23;20738;-83
2022/02/12 12:50:02;;;;;;;2.97;2.13;;;11.40;63.10;;;;;;6184263;23;20407;-83
2022/02/12 12:52:31;;;;;;;2.80;2.10;;;11.50;60.90;;;;;;6183657;23;20437;-84
2022/02/12 12:55:10;;;;;;;3.00;2.40;;;11.60;64.20;;;;;;6188494;23;20437;-83
2022/02/12 12:57:41;;;;;;;4.20;2.67;;;11.70;58.80;;;;;;6188506;23;20405;-83
2022/02/12 13:00:08;;;;;;;3.03;2.73;;;11.50;58.20;;;;;;6183404;23;20386;-82
2022/02/12 13:02:34;;;;;;;6.47;3.00;;;11.00;58.80;;;;;;6184368;23;20386;-83